sensor_id;sensor_type;location;lat;lon;timestamp;P1;durP1;ratioP1;P2;durP2;ratioP2
46391;SDS011;32098;49.448;7.904;2023-06-10T00:01:55;9.88;;;8.25;;
46391;SDS011;32098;49.448;7.904;2023-06-10T00:04:26;9.20;;;8.38;;
46391;SDS011;32098;49.448;7.904;2023-06-10T00:06:53;9.45;;;8.65;;
46391;SDS011;32098;49.448;7.904;2023-06-10T00:09:20;9.07;;;8.27;;
46391;SDS011;32098;49.448;7.904;2023-06-10T00:11:47;10.18;;;9.27;;
46391;SDS011;32098;49.448;7.904;2023-06-10T00:14:14;9.90;;;8.77;;
46391;SDS011;32098;49.448;7.904;2023-06-10T00:16:40;10.07;;;9.10;;
46391;SDS011;32098;49.448;7.904;2023-06-10T00:19:07;10.88;;;8.88;;
46391;SDS011;32098;49.448;7.904;2023-06-10T00:21:34;9.82;;;8.70;;
46391;SDS011;32098;49.448;7.904;2023-06-10T00:24:06;10.27;;;8.80;;
46391;SDS011;32098;49.448;7.904;2023-06-10T00:26:39;9.73;;;8.93;;
46391;SDS011;32098;49.448;7.904;2023-06-10T00:29:06;9.35;;;8.50;;
46391;SDS011;32098;49.448;7.904;2023-06-10T00:31:34;10.23;;;9.13;;
46391;SDS011;32098;49.448;7.904;2023-06-10T00:34:01;10.85;;;9.13;;
46391;SDS011;32098;49.448;7.904;2023-06-10T00:36:30;10.35;;;9.32;;
46391;SDS011;32098;49.448;7.904;2023-06-10T00:38:57;10.07;;;9.07;;
46391;SDS011;32098;49.448;7.904;2023-06-10T00:41:23;10.43;;;9.43;;
46391;SDS011;32098;49.448;7.904;2023-06-10T00:43:50;10.07;;;8.98;;
46391;SDS011;32098;49.448;7.904;2023-06-10T00:46:17;10.80;;;9.68;;
46391;SDS011;32098;49.448;7.904;2023-06-10T00:48:44;9.82;;;8.77;;
46391;SDS011;32098;49.448;7.904;2023-06-10T00:51:12;9.63;;;8.73;;
46391;SDS011;32098;49.448;7.904;2023-06-10T00:53:39;10.20;;;9.20;;
46391;SDS011;32098;49.448;7.904;2023-06-10T00:56:07;10.90;;;9.65;;
46391;SDS011;32098;49.448;7.904;2023-06-10T00:58:35;10.77;;;9.68;;
46391;SDS011;32098;49.448;7.904;2023-06-10T01:01:03;10.10;;;9.20;;
46391;SDS011;32098;49.448;7.904;2023-06-10T01:03:33;10.13;;;9.13;;
46391;SDS011;32098;49.448;7.904;2023-06-10T01:06:06;10.45;;;9.27;;
46391;SDS011;32098;49.448;7.904;2023-06-10T01:08:43;10.02;;;9.13;;
46391;SDS011;32098;49.448;7.904;2023-06-10T01:11:18;9.65;;;8.75;;
46391;SDS011;32098;49.448;7.904;2023-06-10T01:13:48;10.07;;;9.07;;
46391;SDS011;32098;49.448;7.904;2023-06-10T01:16:19;10.18;;;9.18;;
46391;SDS011;32098;49.448;7.904;2023-06-10T01:18:46;9.88;;;8.90;;
46391;SDS011;32098;49.448;7.904;2023-06-10T01:21:20;9.90;;;9.02;;
46391;SDS011;32098;49.448;7.904;2023-06-10T01:23:47;10.07;;;8.35;;
46391;SDS011;32098;49.448;7.904;2023-06-10T01:26:14;10.40;;;9.32;;
46391;SDS011;32098;49.448;7.904;2023-06-10T01:28:54;9.88;;;8.98;;
46391;SDS011;32098;49.448;7.904;2023-06-10T01:34:13;9.77;;;8.77;;
46391;SDS011;32098;49.448;7.904;2023-06-10T01:36:43;9.13;;;8.32;;
46391;SDS011;32098;49.448;7.904;2023-06-10T01:39:12;9.80;;;8.80;;
46391;SDS011;32098;49.448;7.904;2023-06-10T01:41:40;9.27;;;8.48;;
46391;SDS011;32098;49.448;7.904;2023-06-10T01:44:07;9.73;;;8.73;;
46391;SDS011;32098;49.448;7.904;2023-06-10T01:46:34;8.88;;;8.05;;
46391;SDS011;32098;49.448;7.904;2023-06-10T01:49:01;9.07;;;8.27;;
46391;SDS011;32098;49.448;7.904;2023-06-10T01:51:27;9.82;;;8.93;;
46391;SDS011;32098;49.448;7.904;2023-06-10T01:53:54;9.82;;;8.63;;
46391;SDS011;32098;49.448;7.904;2023-06-10T01:56:20;10.35;;;9.00;;
46391;SDS011;32098;49.448;7.904;2023-06-10T01:58:48;9.75;;;8.77;;
46391;SDS011;32098;49.448;7.904;2023-06-10T02:01:14;9.13;;;8.32;;
46391;SDS011;32098;49.448;7.904;2023-06-10T02:03:41;10.77;;;9.73;;
46391;SDS011;32098;49.448;7.904;2023-06-10T02:06:08;10.10;;;9.20;;
46391;SDS011;32098;49.448;7.904;2023-06-10T02:08:34;10.40;;;9.32;;
46391;SDS011;32098;49.448;7.904;2023-06-10T02:11:01;9.93;;;9.02;;
46391;SDS011;32098;49.448;7.904;2023-06-10T02:13:28;10.05;;;9.05;;
46391;SDS011;32098;49.448;7.904;2023-06-10T02:15:55;11.85;;;9.65;;
46391;SDS011;32098;49.448;7.904;2023-06-10T02:18:22;11.38;;;9.82;;
46391;SDS011;32098;49.448;7.904;2023-06-10T02:20:48;10.38;;;9.32;;
46391;SDS011;32098;49.448;7.904;2023-06-10T02:23:15;10.50;;;9.55;;
46391;SDS011;32098;49.448;7.904;2023-06-10T02:25:42;10.70;;;9.65;;
46391;SDS011;32098;49.448;7.904;2023-06-10T02:28:08;10.52;;;9.52;;
46391;SDS011;32098;49.448;7.904;2023-06-10T02:30:35;13.48;;;10.05;;
46391;SDS011;32098;49.448;7.904;2023-06-10T02:33:03;11.25;;;10.15;;
46391;SDS011;32098;49.448;7.904;2023-06-10T02:35:29;11.30;;;10.18;;
46391;SDS011;32098;49.448;7.904;2023-06-10T02:37:56;11.75;;;10.25;;
46391;SDS011;32098;49.448;7.904;2023-06-10T02:40:23;11.05;;;10.00;;
46391;SDS011;32098;49.448;7.904;2023-06-10T02:42:50;11.40;;;10.30;;
46391;SDS011;32098;49.448;7.904;2023-06-10T02:45:18;12.27;;;10.95;;
46391;SDS011;32098;49.448;7.904;2023-06-10T02:47:44;11.77;;;10.57;;
46391;SDS011;32098;49.448;7.904;2023-06-10T02:50:12;11.90;;;10.68;;
46391;SDS011;32098;49.448;7.904;2023-06-10T02:52:59;11.45;;;10.35;;
46391;SDS011;32098;49.448;7.904;2023-06-10T02:55:26;11.68;;;10.50;;
46391;SDS011;32098;49.448;7.904;2023-06-10T02:57:57;12.00;;;10.88;;
46391;SDS011;32098;49.448;7.904;2023-06-10T03:00:26;12.32;;;11.15;;
46391;SDS011;32098;49.448;7.904;2023-06-10T03:02:53;11.38;;;10.27;;
46391;SDS011;32098;49.448;7.904;2023-06-10T03:05:29;11.70;;;10.60;;
46391;SDS011;32098;49.448;7.904;2023-06-10T03:07:58;11.57;;;10.48;;
46391;SDS011;32098;49.448;7.904;2023-06-10T03:10:24;11.80;;;10.60;;
46391;SDS011;32098;49.448;7.904;2023-06-10T03:12:51;11.60;;;10.50;;
46391;SDS011;32098;49.448;7.904;2023-06-10T03:15:18;11.52;;;10.43;;
46391;SDS011;32098;49.448;7.904;2023-06-10T03:17:47;11.98;;;10.82;;
46391;SDS011;32098;49.448;7.904;2023-06-10T03:20:13;12.60;;;11.32;;
46391;SDS011;32098;49.448;7.904;2023-06-10T03:22:43;12.10;;;10.90;;
46391;SDS011;32098;49.448;7.904;2023-06-10T03:25:09;11.88;;;10.77;;
46391;SDS011;32098;49.448;7.904;2023-06-10T03:27:42;12.00;;;10.75;;
46391;SDS011;32098;49.448;7.904;2023-06-10T03:30:09;11.77;;;10.68;;
46391;SDS011;32098;49.448;7.904;2023-06-10T03:32:38;11.95;;;10.73;;
46391;SDS011;32098;49.448;7.904;2023-06-10T03:35:06;12.43;;;11.23;;
46391;SDS011;32098;49.448;7.904;2023-06-10T03:37:35;13.00;;;11.80;;
46391;SDS011;32098;49.448;7.904;2023-06-10T03:40:02;12.43;;;11.15;;
46391;SDS011;32098;49.448;7.904;2023-06-10T03:42:32;12.15;;;10.85;;
46391;SDS011;32098;49.448;7.904;2023-06-10T03:44:58;12.63;;;11.50;;
46391;SDS011;32098;49.448;7.904;2023-06-10T03:47:33;12.15;;;11.05;;
46391;SDS011;32098;49.448;7.904;2023-06-10T03:50:03;12.50;;;11.20;;
46391;SDS011;32098;49.448;7.904;2023-06-10T03:52:31;11.38;;;10.38;;
46391;SDS011;32098;49.448;7.904;2023-06-10T03:54:58;13.25;;;12.05;;
46391;SDS011;32098;49.448;7.904;2023-06-10T03:57:25;12.73;;;11.45;;
46391;SDS011;32098;49.448;7.904;2023-06-10T03:59:52;12.82;;;11.52;;
46391;SDS011;32098;49.448;7.904;2023-06-10T04:02:19;14.35;;;11.45;;
46391;SDS011;32098;49.448;7.904;2023-06-10T04:04:45;12.95;;;11.75;;
46391;SDS011;32098;49.448;7.904;2023-06-10T04:07:13;12.50;;;11.20;;
46391;SDS011;32098;49.448;7.904;2023-06-10T04:09:40;12.95;;;11.73;;
46391;SDS011;32098;49.448;7.904;2023-06-10T04:12:07;13.02;;;11.73;;
46391;SDS011;32098;49.448;7.904;2023-06-10T04:14:35;12.57;;;11.38;;
46391;SDS011;32098;49.448;7.904;2023-06-10T04:17:04;12.35;;;11.15;;
46391;SDS011;32098;49.448;7.904;2023-06-10T04:19:36;12.90;;;11.27;;
46391;SDS011;32098;49.448;7.904;2023-06-10T04:22:02;12.25;;;11.15;;
46391;SDS011;32098;49.448;7.904;2023-06-10T04:24:30;12.45;;;11.35;;
46391;SDS011;32098;49.448;7.904;2023-06-10T04:26:57;11.52;;;10.43;;
46391;SDS011;32098;49.448;7.904;2023-06-10T04:29:24;15.02;;;13.63;;
46391;SDS011;32098;49.448;7.904;2023-06-10T04:31:52;12.85;;;11.55;;
46391;SDS011;32098;49.448;7.904;2023-06-10T04:34:19;12.90;;;11.60;;
46391;SDS011;32098;49.448;7.904;2023-06-10T04:36:46;12.07;;;10.98;;
46391;SDS011;32098;49.448;7.904;2023-06-10T04:39:12;12.60;;;11.30;;
46391;SDS011;32098;49.448;7.904;2023-06-10T04:41:39;12.60;;;11.40;;
46391;SDS011;32098;49.448;7.904;2023-06-10T04:44:06;12.25;;;11.10;;
46391;SDS011;32098;49.448;7.904;2023-06-10T04:46:33;13.57;;;12.27;;
46391;SDS011;32098;49.448;7.904;2023-06-10T04:49:00;12.07;;;10.98;;
46391;SDS011;32098;49.448;7.904;2023-06-10T04:51:27;12.77;;;11.57;;
46391;SDS011;32098;49.448;7.904;2023-06-10T04:53:54;12.73;;;11.52;;
46391;SDS011;32098;49.448;7.904;2023-06-10T04:56:20;12.35;;;11.20;;
46391;SDS011;32098;49.448;7.904;2023-06-10T04:58:48;12.10;;;10.90;;
46391;SDS011;32098;49.448;7.904;2023-06-10T05:01:14;12.30;;;11.20;;
46391;SDS011;32098;49.448;7.904;2023-06-10T05:03:41;12.15;;;10.95;;
46391;SDS011;32098;49.448;7.904;2023-06-10T05:06:08;12.93;;;11.60;;
46391;SDS011;32098;49.448;7.904;2023-06-10T05:08:34;12.02;;;10.93;;
46391;SDS011;32098;49.448;7.904;2023-06-10T05:11:01;11.25;;;10.25;;
46391;SDS011;32098;49.448;7.904;2023-06-10T05:13:28;11.82;;;10.73;;
46391;SDS011;32098;49.448;7.904;2023-06-10T05:15:54;11.77;;;10.63;;
46391;SDS011;32098;49.448;7.904;2023-06-10T05:18:21;11.85;;;10.80;;
46391;SDS011;32098;49.448;7.904;2023-06-10T05:20:47;11.65;;;10.55;;
46391;SDS011;32098;49.448;7.904;2023-06-10T05:23:15;11.98;;;10.93;;
46391;SDS011;32098;49.448;7.904;2023-06-10T05:25:42;11.60;;;10.57;;
46391;SDS011;32098;49.448;7.904;2023-06-10T05:28:08;11.05;;;10.15;;
46391;SDS011;32098;49.448;7.904;2023-06-10T05:30:40;12.75;;;10.93;;
46391;SDS011;32098;49.448;7.904;2023-06-10T05:33:07;11.13;;;10.07;;
46391;SDS011;32098;49.448;7.904;2023-06-10T05:35:33;12.00;;;10.55;;
46391;SDS011;32098;49.448;7.904;2023-06-10T05:38:00;11.77;;;10.57;;
46391;SDS011;32098;49.448;7.904;2023-06-10T05:40:29;11.32;;;10.23;;
46391;SDS011;32098;49.448;7.904;2023-06-10T05:42:55;11.27;;;10.27;;
46391;SDS011;32098;49.448;7.904;2023-06-10T05:45:22;10.95;;;9.73;;
46391;SDS011;32098;49.448;7.904;2023-06-10T05:47:48;10.57;;;9.65;;
46391;SDS011;32098;49.448;7.904;2023-06-10T05:50:15;11.30;;;10.20;;
46391;SDS011;32098;49.448;7.904;2023-06-10T05:52:42;10.95;;;9.85;;
46391;SDS011;32098;49.448;7.904;2023-06-10T05:55:09;10.73;;;9.60;;
46391;SDS011;32098;49.448;7.904;2023-06-10T05:57:36;10.63;;;9.63;;
46391;SDS011;32098;49.448;7.904;2023-06-10T06:00:03;12.57;;;10.13;;
46391;SDS011;32098;49.448;7.904;2023-06-10T06:02:37;10.82;;;9.93;;
46391;SDS011;32098;49.448;7.904;2023-06-10T06:05:04;10.10;;;9.23;;
46391;SDS011;32098;49.448;7.904;2023-06-10T06:07:31;10.95;;;9.63;;
46391;SDS011;32098;49.448;7.904;2023-06-10T06:09:58;9.35;;;8.35;;
46391;SDS011;32098;49.448;7.904;2023-06-10T06:12:25;9.55;;;8.32;;
46391;SDS011;32098;49.448;7.904;2023-06-10T06:14:51;9.45;;;8.32;;
46391;SDS011;32098;49.448;7.904;2023-06-10T06:17:18;9.38;;;8.57;;
46391;SDS011;32098;49.448;7.904;2023-06-10T06:19:44;8.70;;;8.00;;
46391;SDS011;32098;49.448;7.904;2023-06-10T06:22:13;9.13;;;8.23;;
46391;SDS011;32098;49.448;7.904;2023-06-10T06:24:39;8.93;;;7.93;;
46391;SDS011;32098;49.448;7.904;2023-06-10T06:27:06;9.93;;;8.80;;
46391;SDS011;32098;49.448;7.904;2023-06-10T06:29:33;8.68;;;7.72;;
46391;SDS011;32098;49.448;7.904;2023-06-10T06:32:00;7.70;;;7.10;;
46391;SDS011;32098;49.448;7.904;2023-06-10T06:34:26;7.50;;;6.70;;
46391;SDS011;32098;49.448;7.904;2023-06-10T06:36:53;6.63;;;6.13;;
46391;SDS011;32098;49.448;7.904;2023-06-10T06:39:20;7.18;;;6.47;;
46391;SDS011;32098;49.448;7.904;2023-06-10T06:41:46;6.28;;;5.78;;
46391;SDS011;32098;49.448;7.904;2023-06-10T06:44:13;6.72;;;6.10;;
46391;SDS011;32098;49.448;7.904;2023-06-10T06:46:42;7.30;;;6.53;;
46391;SDS011;32098;49.448;7.904;2023-06-10T06:49:09;7.50;;;6.80;;
46391;SDS011;32098;49.448;7.904;2023-06-10T06:51:35;6.97;;;6.28;;
46391;SDS011;32098;49.448;7.904;2023-06-10T06:54:03;8.85;;;6.10;;
46391;SDS011;32098;49.448;7.904;2023-06-10T06:56:31;7.60;;;6.00;;
46391;SDS011;32098;49.448;7.904;2023-06-10T06:58:58;6.72;;;6.03;;
46391;SDS011;32098;49.448;7.904;2023-06-10T07:01:24;6.47;;;5.82;;
46391;SDS011;32098;49.448;7.904;2023-06-10T07:03:51;7.80;;;5.95;;
46391;SDS011;32098;49.448;7.904;2023-06-10T07:06:18;6.70;;;6.10;;
46391;SDS011;32098;49.448;7.904;2023-06-10T07:08:44;6.00;;;5.50;;
46391;SDS011;32098;49.448;7.904;2023-06-10T07:11:11;6.30;;;5.80;;
46391;SDS011;32098;49.448;7.904;2023-06-10T07:13:37;6.40;;;5.80;;
46391;SDS011;32098;49.448;7.904;2023-06-10T07:16:04;7.43;;;6.18;;
46391;SDS011;32098;49.448;7.904;2023-06-10T07:18:30;6.18;;;5.57;;
46391;SDS011;32098;49.448;7.904;2023-06-10T07:20:57;6.07;;;5.43;;
46391;SDS011;32098;49.448;7.904;2023-06-10T07:23:23;5.22;;;4.72;;
46391;SDS011;32098;49.448;7.904;2023-06-10T07:25:50;5.43;;;5.03;;
46391;SDS011;32098;49.448;7.904;2023-06-10T07:28:16;5.00;;;4.50;;
46391;SDS011;32098;49.448;7.904;2023-06-10T07:30:43;4.85;;;4.45;;
46391;SDS011;32098;49.448;7.904;2023-06-10T07:33:10;5.80;;;4.75;;
46391;SDS011;32098;49.448;7.904;2023-06-10T07:35:37;4.85;;;4.45;;
46391;SDS011;32098;49.448;7.904;2023-06-10T07:38:04;4.38;;;4.00;;
46391;SDS011;32098;49.448;7.904;2023-06-10T07:40:30;4.65;;;4.25;;
46391;SDS011;32098;49.448;7.904;2023-06-10T07:43:00;4.10;;;3.80;;
46391;SDS011;32098;49.448;7.904;2023-06-10T07:45:26;4.85;;;4.45;;
46391;SDS011;32098;49.448;7.904;2023-06-10T07:47:53;4.82;;;4.32;;
46391;SDS011;32098;49.448;7.904;2023-06-10T07:50:20;4.55;;;3.92;;
46391;SDS011;32098;49.448;7.904;2023-06-10T07:52:46;4.80;;;4.40;;
46391;SDS011;32098;49.448;7.904;2023-06-10T07:55:13;4.80;;;4.10;;
46391;SDS011;32098;49.448;7.904;2023-06-10T07:57:39;4.57;;;4.18;;
46391;SDS011;32098;49.448;7.904;2023-06-10T08:00:06;4.82;;;4.30;;
46391;SDS011;32098;49.448;7.904;2023-06-10T08:02:39;5.07;;;4.53;;
46391;SDS011;32098;49.448;7.904;2023-06-10T08:05:05;4.78;;;4.32;;
46391;SDS011;32098;49.448;7.904;2023-06-10T08:07:33;4.50;;;4.20;;
46391;SDS011;32098;49.448;7.904;2023-06-10T08:10:00;6.28;;;4.38;;
46391;SDS011;32098;49.448;7.904;2023-06-10T08:12:26;4.70;;;4.30;;
46391;SDS011;32098;49.448;7.904;2023-06-10T08:14:53;4.20;;;3.80;;
46391;SDS011;32098;49.448;7.904;2023-06-10T08:17:21;4.53;;;4.10;;
46391;SDS011;32098;49.448;7.904;2023-06-10T08:19:48;4.47;;;3.92;;
46391;SDS011;32098;49.448;7.904;2023-06-10T08:22:14;4.30;;;3.90;;
46391;SDS011;32098;49.448;7.904;2023-06-10T08:24:41;5.10;;;4.60;;
46391;SDS011;32098;49.448;7.904;2023-06-10T08:27:07;4.05;;;3.75;;
46391;SDS011;32098;49.448;7.904;2023-06-10T08:29:34;4.22;;;3.92;;
46391;SDS011;32098;49.448;7.904;2023-06-10T08:32:00;6.32;;;4.57;;
46391;SDS011;32098;49.448;7.904;2023-06-10T08:34:27;4.57;;;4.18;;
46391;SDS011;32098;49.448;7.904;2023-06-10T08:36:54;4.25;;;3.92;;
46391;SDS011;32098;49.448;7.904;2023-06-10T08:39:21;4.63;;;4.22;;
46391;SDS011;32098;49.448;7.904;2023-06-10T08:41:58;5.05;;;4.55;;
46391;SDS011;32098;49.448;7.904;2023-06-10T08:44:27;4.82;;;4.38;;
46391;SDS011;32098;49.448;7.904;2023-06-10T08:46:59;4.88;;;4.40;;
46391;SDS011;32098;49.448;7.904;2023-06-10T08:49:27;5.00;;;4.60;;
46391;SDS011;32098;49.448;7.904;2023-06-10T08:52:00;5.15;;;4.70;;
46391;SDS011;32098;49.448;7.904;2023-06-10T08:54:30;5.15;;;4.65;;
46391;SDS011;32098;49.448;7.904;2023-06-10T08:57:00;5.38;;;4.30;;
46391;SDS011;32098;49.448;7.904;2023-06-10T08:59:30;5.18;;;4.68;;
46391;SDS011;32098;49.448;7.904;2023-06-10T09:01:56;5.32;;;4.72;;
46391;SDS011;32098;49.448;7.904;2023-06-10T09:04:24;5.35;;;4.85;;
46391;SDS011;32098;49.448;7.904;2023-06-10T09:06:51;5.90;;;5.25;;
46391;SDS011;32098;49.448;7.904;2023-06-10T09:09:19;5.50;;;5.00;;
46391;SDS011;32098;49.448;7.904;2023-06-10T09:11:46;7.93;;;4.97;;
46391;SDS011;32098;49.448;7.904;2023-06-10T09:14:13;5.28;;;4.47;;
46391;SDS011;32098;49.448;7.904;2023-06-10T09:16:40;5.10;;;4.70;;
46391;SDS011;32098;49.448;7.904;2023-06-10T09:19:08;4.97;;;4.57;;
46391;SDS011;32098;49.448;7.904;2023-06-10T09:21:34;8.07;;;5.13;;
46391;SDS011;32098;49.448;7.904;2023-06-10T09:24:05;5.28;;;4.78;;
46391;SDS011;32098;49.448;7.904;2023-06-10T09:26:31;6.00;;;5.00;;
46391;SDS011;32098;49.448;7.904;2023-06-10T09:29:05;5.70;;;5.20;;
46391;SDS011;32098;49.448;7.904;2023-06-10T09:31:34;4.82;;;4.43;;
46391;SDS011;32098;49.448;7.904;2023-06-10T09:34:08;5.22;;;4.72;;
46391;SDS011;32098;49.448;7.904;2023-06-10T09:36:36;5.00;;;4.60;;
46391;SDS011;32098;49.448;7.904;2023-06-10T09:39:04;4.82;;;4.43;;
46391;SDS011;32098;49.448;7.904;2023-06-10T09:41:31;5.40;;;4.90;;
46391;SDS011;32098;49.448;7.904;2023-06-10T09:43:59;7.60;;;4.78;;
46391;SDS011;32098;49.448;7.904;2023-06-10T09:46:30;4.93;;;4.47;;
46391;SDS011;32098;49.448;7.904;2023-06-10T09:48:58;4.95;;;4.55;;
46391;SDS011;32098;49.448;7.904;2023-06-10T09:51:25;7.28;;;4.30;;
46391;SDS011;32098;49.448;7.904;2023-06-10T09:53:52;8.85;;;4.70;;
46391;SDS011;32098;49.448;7.904;2023-06-10T09:56:19;7.63;;;4.70;;
46391;SDS011;32098;49.448;7.904;2023-06-10T09:58:47;4.65;;;4.22;;
46391;SDS011;32098;49.448;7.904;2023-06-10T10:01:14;6.30;;;5.45;;
46391;SDS011;32098;49.448;7.904;2023-06-10T10:03:45;5.05;;;4.55;;
46391;SDS011;32098;49.448;7.904;2023-06-10T10:06:13;5.40;;;5.00;;
46391;SDS011;32098;49.448;7.904;2023-06-10T10:08:41;4.90;;;4.40;;
46391;SDS011;32098;49.448;7.904;2023-06-10T10:11:07;5.97;;;4.90;;
46391;SDS011;32098;49.448;7.904;2023-06-10T10:13:35;5.65;;;5.13;;
46391;SDS011;32098;49.448;7.904;2023-06-10T10:16:14;7.40;;;4.90;;
46391;SDS011;32098;49.448;7.904;2023-06-10T10:18:43;6.18;;;4.88;;
46391;SDS011;32098;49.448;7.904;2023-06-10T10:21:14;5.45;;;4.85;;
46391;SDS011;32098;49.448;7.904;2023-06-10T10:26:16;5.63;;;5.07;;
46391;SDS011;32098;49.448;7.904;2023-06-10T10:29:02;5.68;;;5.18;;
46391;SDS011;32098;49.448;7.904;2023-06-10T10:31:36;5.65;;;5.15;;
46391;SDS011;32098;49.448;7.904;2023-06-10T10:34:09;6.18;;;5.65;;
46391;SDS011;32098;49.448;7.904;2023-06-10T10:36:40;5.38;;;4.97;;
46391;SDS011;32098;49.448;7.904;2023-06-10T10:39:08;5.78;;;5.18;;
46391;SDS011;32098;49.448;7.904;2023-06-10T10:41:35;6.10;;;5.55;;
46391;SDS011;32098;49.448;7.904;2023-06-10T10:44:05;6.65;;;5.78;;
46391;SDS011;32098;49.448;7.904;2023-06-10T10:46:43;6.28;;;5.68;;
46391;SDS011;32098;49.448;7.904;2023-06-10T10:49:14;5.90;;;5.30;;
46391;SDS011;32098;49.448;7.904;2023-06-10T10:51:54;6.35;;;5.75;;
46391;SDS011;32098;49.448;7.904;2023-06-10T10:54:28;7.47;;;5.78;;
46391;SDS011;32098;49.448;7.904;2023-06-10T11:02:19;6.38;;;5.78;;
46391;SDS011;32098;49.448;7.904;2023-06-10T11:05:02;6.20;;;5.57;;
46391;SDS011;32098;49.448;7.904;2023-06-10T11:07:30;6.13;;;5.53;;
46391;SDS011;32098;49.448;7.904;2023-06-10T11:09:58;6.32;;;5.72;;
46391;SDS011;32098;49.448;7.904;2023-06-10T11:12:40;6.80;;;6.00;;
46391;SDS011;32098;49.448;7.904;2023-06-10T11:15:06;6.65;;;5.95;;
46391;SDS011;32098;49.448;7.904;2023-06-10T11:17:34;5.93;;;5.30;;
46391;SDS011;32098;49.448;7.904;2023-06-10T11:20:00;5.75;;;5.18;;
46391;SDS011;32098;49.448;7.904;2023-06-10T11:22:27;6.68;;;6.07;;
46391;SDS011;32098;49.448;7.904;2023-06-10T11:24:53;6.28;;;5.75;;
46391;SDS011;32098;49.448;7.904;2023-06-10T11:27:23;8.68;;;5.90;;
46391;SDS011;32098;49.448;7.904;2023-06-10T11:32:30;6.35;;;5.85;;
46391;SDS011;32098;49.448;7.904;2023-06-10T11:34:59;6.85;;;5.90;;
46391;SDS011;32098;49.448;7.904;2023-06-10T11:37:26;6.75;;;5.95;;
46391;SDS011;32098;49.448;7.904;2023-06-10T11:39:54;6.63;;;6.03;;
46391;SDS011;32098;49.448;7.904;2023-06-10T11:42:21;7.45;;;6.32;;
46391;SDS011;32098;49.448;7.904;2023-06-10T11:44:49;7.10;;;6.40;;
46391;SDS011;32098;49.448;7.904;2023-06-10T11:47:17;7.05;;;5.65;;
46391;SDS011;32098;49.448;7.904;2023-06-10T11:49:45;6.00;;;5.50;;
46391;SDS011;32098;49.448;7.904;2023-06-10T11:52:17;6.32;;;5.53;;
46391;SDS011;32098;49.448;7.904;2023-06-10T11:54:46;6.63;;;6.03;;
46391;SDS011;32098;49.448;7.904;2023-06-10T11:57:19;6.72;;;6.05;;
46391;SDS011;32098;49.448;7.904;2023-06-10T11:59:46;6.53;;;5.93;;
46391;SDS011;32098;49.448;7.904;2023-06-10T12:02:16;8.18;;;6.85;;
46391;SDS011;32098;49.448;7.904;2023-06-10T12:04:43;7.13;;;6.43;;
46391;SDS011;32098;49.448;7.904;2023-06-10T12:07:16;6.90;;;6.15;;
46391;SDS011;32098;49.448;7.904;2023-06-10T12:09:43;6.95;;;5.95;;
46391;SDS011;32098;49.448;7.904;2023-06-10T12:12:10;6.15;;;5.55;;
46391;SDS011;32098;49.448;7.904;2023-06-10T12:14:54;5.93;;;5.43;;
46391;SDS011;32098;49.448;7.904;2023-06-10T12:20:03;6.50;;;5.90;;
46391;SDS011;32098;49.448;7.904;2023-06-10T12:22:38;6.50;;;5.90;;
46391;SDS011;32098;49.448;7.904;2023-06-10T12:25:08;5.70;;;5.20;;
46391;SDS011;32098;49.448;7.904;2023-06-10T12:27:37;7.00;;;5.03;;
46391;SDS011;32098;49.448;7.904;2023-06-10T12:30:05;5.68;;;4.55;;
46391;SDS011;32098;49.448;7.904;2023-06-10T12:32:36;5.60;;;4.68;;
46391;SDS011;32098;49.448;7.904;2023-06-10T12:35:08;7.50;;;4.53;;
46391;SDS011;32098;49.448;7.904;2023-06-10T12:37:36;5.85;;;4.80;;
46391;SDS011;32098;49.448;7.904;2023-06-10T12:40:07;5.30;;;4.80;;
46391;SDS011;32098;49.448;7.904;2023-06-10T12:42:35;5.05;;;4.65;;
46391;SDS011;32098;49.448;7.904;2023-06-10T12:45:03;4.97;;;4.55;;
46391;SDS011;32098;49.448;7.904;2023-06-10T12:47:35;5.07;;;4.57;;
46391;SDS011;32098;49.448;7.904;2023-06-10T12:50:07;5.05;;;4.63;;
46391;SDS011;32098;49.448;7.904;2023-06-10T12:52:35;5.00;;;4.53;;
46391;SDS011;32098;49.448;7.904;2023-06-10T12:55:02;4.63;;;4.22;;
46391;SDS011;32098;49.448;7.904;2023-06-10T12:57:30;5.35;;;4.20;;
46391;SDS011;32098;49.448;7.904;2023-06-10T12:59:57;6.90;;;4.47;;
46391;SDS011;32098;49.448;7.904;2023-06-10T13:02:29;5.20;;;4.45;;
46391;SDS011;32098;49.448;7.904;2023-06-10T13:04:56;4.97;;;4.28;;
46391;SDS011;32098;49.448;7.904;2023-06-10T13:07:23;4.22;;;3.65;;
46391;SDS011;32098;49.448;7.904;2023-06-10T13:09:49;4.25;;;3.90;;
46391;SDS011;32098;49.448;7.904;2023-06-10T13:12:16;4.65;;;4.00;;
46391;SDS011;32098;49.448;7.904;2023-06-10T13:14:55;4.43;;;3.80;;
46391;SDS011;32098;49.448;7.904;2023-06-10T13:17:22;4.78;;;4.07;;
46391;SDS011;32098;49.448;7.904;2023-06-10T13:19:49;5.22;;;4.32;;
46391;SDS011;32098;49.448;7.904;2023-06-10T13:22:16;4.90;;;4.15;;
46391;SDS011;32098;49.448;7.904;2023-06-10T13:24:42;4.18;;;3.83;;
46391;SDS011;32098;49.448;7.904;2023-06-10T13:27:10;4.55;;;4.07;;
46391;SDS011;32098;49.448;7.904;2023-06-10T13:29:37;4.22;;;3.92;;
46391;SDS011;32098;49.448;7.904;2023-06-10T13:32:04;5.10;;;4.20;;
46391;SDS011;32098;49.448;7.904;2023-06-10T13:34:30;4.38;;;3.97;;
46391;SDS011;32098;49.448;7.904;2023-06-10T13:36:57;4.60;;;3.97;;
46391;SDS011;32098;49.448;7.904;2023-06-10T13:39:23;5.43;;;3.50;;
46391;SDS011;32098;49.448;7.904;2023-06-10T13:41:50;4.95;;;3.90;;
46391;SDS011;32098;49.448;7.904;2023-06-10T13:44:18;4.95;;;3.97;;
46391;SDS011;32098;49.448;7.904;2023-06-10T13:46:44;4.50;;;4.10;;
46391;SDS011;32098;49.448;7.904;2023-06-10T13:49:15;4.68;;;4.10;;
46391;SDS011;32098;49.448;7.904;2023-06-10T13:51:41;4.60;;;4.20;;
46391;SDS011;32098;49.448;7.904;2023-06-10T13:54:08;4.32;;;3.95;;
46391;SDS011;32098;49.448;7.904;2023-06-10T13:56:34;6.57;;;4.28;;
46391;SDS011;32098;49.448;7.904;2023-06-10T13:59:04;4.82;;;4.38;;
46391;SDS011;32098;49.448;7.904;2023-06-10T14:01:30;5.57;;;4.13;;
46391;SDS011;32098;49.448;7.904;2023-06-10T14:03:57;4.88;;;4.47;;
46391;SDS011;32098;49.448;7.904;2023-06-10T14:06:24;4.63;;;4.13;;
46391;SDS011;32098;49.448;7.904;2023-06-10T14:08:50;6.20;;;4.60;;
46391;SDS011;32098;49.448;7.904;2023-06-10T14:11:17;4.53;;;4.13;;
46391;SDS011;32098;49.448;7.904;2023-06-10T14:13:43;4.65;;;4.25;;
46391;SDS011;32098;49.448;7.904;2023-06-10T14:16:10;4.75;;;4.10;;
46391;SDS011;32098;49.448;7.904;2023-06-10T14:18:36;5.20;;;4.18;;
46391;SDS011;32098;49.448;7.904;2023-06-10T14:21:02;4.85;;;3.97;;
46391;SDS011;32098;49.448;7.904;2023-06-10T14:23:30;4.82;;;4.43;;
46391;SDS011;32098;49.448;7.904;2023-06-10T14:25:56;4.80;;;4.20;;
46391;SDS011;32098;49.448;7.904;2023-06-10T14:28:23;4.60;;;4.20;;
46391;SDS011;32098;49.448;7.904;2023-06-10T14:30:50;4.40;;;4.00;;
46391;SDS011;32098;49.448;7.904;2023-06-10T14:33:16;5.38;;;4.00;;
46391;SDS011;32098;49.448;7.904;2023-06-10T14:35:43;4.97;;;4.22;;
46391;SDS011;32098;49.448;7.904;2023-06-10T14:38:10;6.75;;;4.32;;
46391;SDS011;32098;49.448;7.904;2023-06-10T14:40:36;4.53;;;4.13;;
46391;SDS011;32098;49.448;7.904;2023-06-10T14:43:03;6.30;;;3.95;;
46391;SDS011;32098;49.448;7.904;2023-06-10T14:45:36;4.43;;;4.03;;
46391;SDS011;32098;49.448;7.904;2023-06-10T14:48:03;6.10;;;4.00;;
46391;SDS011;32098;49.448;7.904;2023-06-10T14:50:30;4.45;;;4.03;;
46391;SDS011;32098;49.448;7.904;2023-06-10T14:52:58;4.50;;;4.10;;
46391;SDS011;32098;49.448;7.904;2023-06-10T14:55:25;4.60;;;4.20;;
46391;SDS011;32098;49.448;7.904;2023-06-10T14:57:52;4.95;;;4.45;;
46391;SDS011;32098;49.448;7.904;2023-06-10T15:00:18;4.57;;;4.18;;
46391;SDS011;32098;49.448;7.904;2023-06-10T15:02:50;4.75;;;4.22;;